Corpus Christi, TX

1:40 PM CST on December 08, 2016 (GMT -0600)
Aransas Cliffs | | Change Station
Active Advisory: Wind Advisory

Elev 46 ft 27.75 °N, 97.38 °W | Updated 17 seconds ago

Overcast
Overcast
46.4 °F
Feels Like 42 °F
N
9.8
Wind Variable Wind from North
Gusts 17.0 mph

Today
High -- | Low -- °F
--% Chance of Precip.
Yesterday
High -- | Low -- °F
Precip. -- in
Pressure 30.37 in
Visibility 10.0 miles
Clouds Scattered Clouds 900 ft
Mostly Cloudy 1300 ft
Overcast 1900 ft
Windchill 42 °F
Dew Point 42 °F
Humidity 83%
Rainfall 0.00 in
Snow Depth Not available.
7:08 AM 5:34 PM
Waxing Gibbous, 66% visible
METAR KCRP 081851Z 36018G26KT 10SM -DZ SCT009 BKN013 OVC019 08/06 A3036 RMK AO2 PK WND 01032/1755 DZE1758B51 SLP282 P0000 T00780061
Pressure 30.37 in
Visibility 10.0 miles
Clouds Scattered Clouds 900 ft
Mostly Cloudy 1300 ft
Overcast 1900 ft
Windchill 42 °F
Dew Point 42 °F
Humidity 83%
Rainfall 0.00 in
Snow Depth Not available.
7:08 AM 5:34 PM
Waxing Gibbous, 66% visible
METAR KCRP 081851Z 36018G26KT 10SM -DZ SCT009 BKN013 OVC019 08/06 A3036 RMK AO2 PK WND 01032/1755 DZE1758B51 SLP282 P0000 T00780061

10-Day Weather Forecast

Almanac

Astronomy

Dec. 08, 2016 Rise Set
Actual Time
Civil Twilight
Nautical Twilight
Astronomical Twilight
Moon
Length of Visible Light
Length of Day
Tomorrow will be .
, % of the Moon is Illuminated

Today's Extremes

State Highs State Lows

Community

WunderPhotos

Upload Photos

1,956,277 photos uploaded!

WunderBlog® & News

Nearby

Air Quality

  Air Quality AQ Index Pollutant
Not available.

Snow Depth

Station Depth Elevation

Earthquake Activity

City Distance Mag. Time & Date
Minimum magnitude displayed is 2.5.

Coastal Water Temperatures

Place Temperature

Stations

Nearby Weather Stations

Station Location Temp. Windchill Dew Point Humidity Wind Precip. Elev Updated Type
                   

Watches & Warnings

Wind Advisory
Issued: 11:52 AM CST Dec. 8, 2016 – National Weather Service

... Wind Advisory remains in effect until 6 PM CST this evening...

* timing... strong gusty winds through the late afternoon.

* Winds... sustained winds north 25 to 30 mph with gusts near 40
mph.

* Impacts... loose items will likely be blown around in yards...
parking lots... and on streets. Secure items before the onset
of strong winds if possible. Driving can become difficult...
especially on east-west roads with a strong Crosswinds. Use
extra caution... especially if driving a high profile vehicle.

Precautionary/preparedness actions...

A Wind Advisory means that sustained winds of 30 mph or greater...
or wind gusts around 40 mph or greater are expected. Winds this
strong can make driving difficult... especially for high profile
vehicles. Use extra caution.



Pz